createdAt,value
2018-09-15T05:00:30.694Z,20.00
2018-09-15T05:03:01.737Z,17.60
2018-09-15T05:05:33.277Z,17.40
2018-09-15T05:08:07.507Z,17.30
2018-09-15T05:10:38.412Z,17.30
2018-09-15T10:35:07.598Z,17.40
2018-09-15T10:37:39.892Z,29.60
2018-09-15T10:40:12.886Z,29.20
2018-09-15T10:43:42.414Z,29.20
2018-09-15T17:25:09.518Z,29.30
2018-09-15T17:27:40.448Z,23.20
2018-09-15T17:30:12.907Z,22.80
2018-09-15T17:32:43.850Z,22.80
2018-09-15T17:35:15.542Z,22.80
2018-09-15T17:37:50.782Z,22.70
2018-09-15T17:40:21.838Z,22.70
2018-09-15T17:42:53.029Z,22.50
2018-09-15T17:45:24.031Z,22.40
2018-09-15T17:47:54.948Z,22.40
2018-09-15T17:50:26.077Z,22.30
2018-09-15T17:52:57.073Z,22.20
2018-09-15T17:55:30.757Z,22.20
2018-09-15T17:58:01.724Z,22.20
2018-09-15T18:00:32.742Z,22.10
2018-09-15T18:03:04.030Z,22.00
2018-09-15T18:05:34.805Z,21.90
2018-09-15T18:08:06.776Z,21.90
2018-09-15T18:10:38.398Z,21.80
2018-09-15T18:13:09.430Z,21.80
2018-09-15T18:15:41.310Z,21.70
2018-09-15T18:18:12.236Z,21.70
2018-09-15T18:20:45.449Z,21.60
2018-09-15T18:23:17.528Z,21.60
2018-09-15T18:25:50.587Z,21.40
2018-09-15T18:28:21.548Z,21.30
2018-09-15T18:30:52.296Z,21.10
2018-09-15T18:33:28.659Z,21.00
2018-09-15T18:35:59.535Z,21.00
2018-09-15T18:38:31.491Z,20.80
2018-09-15T18:41:02.312Z,20.80
2018-09-15T18:43:35.694Z,20.80
2018-09-15T18:46:07.766Z,20.70
2018-09-15T18:48:39.762Z,20.60
2018-09-15T18:51:10.603Z,20.50
2018-09-15T18:53:42.643Z,20.40
2018-09-15T18:56:14.168Z,20.30
2018-09-15T18:58:47.944Z,20.20
2018-09-15T19:01:19.671Z,20.10
2018-09-15T19:03:50.944Z,20.10
2018-09-15T19:06:21.706Z,19.90
2018-09-15T19:08:53.428Z,19.80
2018-09-15T19:11:25.222Z,19.70
2018-09-15T19:13:56.648Z,19.50
2018-09-15T19:16:30.407Z,19.50
2018-09-15T19:19:03.323Z,19.40
2018-09-15T19:21:36.700Z,19.30
2018-09-15T19:24:07.593Z,19.30
2018-09-15T19:26:40.928Z,19.30
2018-09-15T19:29:13.979Z,19.30
2018-09-15T19:31:46.913Z,19.30
2018-09-15T19:34:17.980Z,19.30
2018-09-15T19:36:49.296Z,19.20
2018-09-15T19:39:20.581Z,19.10
2018-09-15T19:41:54.875Z,19.00
2018-09-15T19:44:26.468Z,19.00
2018-09-15T19:46:58.401Z,18.90
2018-09-15T19:49:29.368Z,18.90
2018-09-15T19:52:00.397Z,18.80
2018-09-15T19:54:31.302Z,18.80
2018-09-15T19:57:02.588Z,18.80
2018-09-15T19:59:33.790Z,18.80
2018-09-15T20:02:04.803Z,18.80
2018-09-15T20:04:35.761Z,18.70
2018-09-15T20:07:06.807Z,18.70
2018-09-15T20:09:37.864Z,18.60
2018-09-15T20:12:09.914Z,18.60
2018-09-15T20:14:40.918Z,18.50
2018-09-15T20:17:09.592Z,18.50
2018-09-15T20:19:38.375Z,18.40
2018-09-15T20:22:09.930Z,18.40
2018-09-15T20:24:41.021Z,18.40
2018-09-15T20:27:12.036Z,18.30
2018-09-15T20:29:43.089Z,18.30
2018-09-15T20:32:15.352Z,18.20
2018-09-15T20:34:47.439Z,18.00
2018-09-15T20:37:18.517Z,18.00
2018-09-15T20:39:49.529Z,17.90
2018-09-15T20:42:20.467Z,17.90
2018-09-15T20:44:57.071Z,17.90
2018-09-15T20:47:28.519Z,17.80
2018-09-15T20:49:59.541Z,17.80
2018-09-15T20:52:30.750Z,17.70
2018-09-15T20:55:04.383Z,17.50
2018-09-15T20:57:35.517Z,17.30
2018-09-15T21:00:09.465Z,17.20
2018-09-15T21:02:41.012Z,17.20
2018-09-15T21:05:12.328Z,17.20
2018-09-15T21:07:43.227Z,17.20
2018-09-15T21:10:15.423Z,17.10
2018-09-15T21:12:46.924Z,17.10
2018-09-15T21:15:17.890Z,17.10
2018-09-15T21:17:48.879Z,17.10
2018-09-15T21:20:19.920Z,17.00
2018-09-15T21:22:51.521Z,17.00
2018-09-15T21:25:23.879Z,17.00
2018-09-15T21:27:55.724Z,17.00
2018-09-15T21:30:27.218Z,16.90
2018-09-15T21:32:59.742Z,16.90
2018-09-15T21:35:30.672Z,16.90
2018-09-15T21:38:01.931Z,16.80
2018-09-15T21:40:33.390Z,16.80
2018-09-15T21:43:04.435Z,16.70
2018-09-15T21:45:36.137Z,16.60
2018-09-15T21:48:08.105Z,16.50
2018-09-15T21:50:39.130Z,16.50
2018-09-15T21:53:11.103Z,16.60
2018-09-15T21:55:43.871Z,16.60
2018-09-15T21:58:15.404Z,16.60
2018-09-15T22:00:46.637Z,16.60
2018-09-15T22:03:21.684Z,16.60
2018-09-15T22:05:52.629Z,16.60
2018-09-15T22:08:23.687Z,16.60
2018-09-15T22:10:55.162Z,16.40
2018-09-15T22:13:27.190Z,16.40
2018-09-15T22:15:58.691Z,16.50
2018-09-15T22:18:29.685Z,16.40
2018-09-15T22:21:01.434Z,16.50
2018-09-15T22:23:32.385Z,16.50
2018-09-15T22:26:03.461Z,16.50
2018-09-15T22:28:34.902Z,16.50
2018-09-15T22:31:07.060Z,16.40
2018-09-15T22:33:38.071Z,16.40
2018-09-15T22:36:10.743Z,16.50
2018-09-15T22:38:41.719Z,16.50
2018-09-15T22:41:12.654Z,16.50
2018-09-15T22:43:44.877Z,16.60
2018-09-15T22:46:15.844Z,16.50
2018-09-15T22:48:46.784Z,16.50
2018-09-15T22:51:17.661Z,16.50
2018-09-15T22:53:49.756Z,16.40
2018-09-15T22:56:22.745Z,16.40
2018-09-15T22:58:55.029Z,16.40
2018-09-15T23:01:26.840Z,16.50
2018-09-15T23:04:04.822Z,16.40
2018-09-15T23:06:36.732Z,16.30
2018-09-15T23:09:10.286Z,16.30
2018-09-15T23:11:41.199Z,16.20
2018-09-15T23:14:12.056Z,16.10
2018-09-15T23:16:42.876Z,16.00
2018-09-15T23:19:13.803Z,16.00
2018-09-15T23:21:44.638Z,16.00
2018-09-15T23:24:15.695Z,15.90
2018-09-15T23:26:46.502Z,15.90
2018-09-15T23:29:17.707Z,15.90
2018-09-15T23:31:48.565Z,15.90
2018-09-15T23:34:19.531Z,15.90
2018-09-15T23:36:50.481Z,15.90
2018-09-15T23:39:24.831Z,15.90
2018-09-15T23:41:55.945Z,15.90
2018-09-15T23:44:26.817Z,15.80
2018-09-15T23:46:57.633Z,15.80
2018-09-15T23:49:28.441Z,15.80
2018-09-15T23:52:00.298Z,15.80
2018-09-15T23:54:32.176Z,15.80
2018-09-15T23:57:03.244Z,15.80
2018-09-15T23:59:34.168Z,15.80
